Tiempo atmosférico en la estación meteorológica de Alcala de Henares, Madrid (605 m.)



Fecha
DESCASC
Temp. máxima en grados centígrados (hora)
DESCASC
Temp. mínima en grados centígrados (hora)
DESCASC
Temp. media en grados centígrados
DESCASC
Racha de viento máxima en m/sg (hora)
DESCASC
Velocidad máxima media en intervalos de 10 minutos(hora)
DESCASC
Precipitaciones diarias en mm
DESCASC
Precipitaciones de 00:00 a 06:00 en mm
DESCASC
Precipitaciones de 06:00 a 12:00 en mm
DESCASC
Precipitaciones de 12:00 a 18:00 en mm
DESCASC
Precipitaciones de 18:00 a 24:00 en mm
DESCASC
19-04-2018 24.4 (17:20) 8.5 (07:40) 16.4 11.67 (23:30) 7.22 (23:10) 0 0 0 0 0
18-04-2018 25.5 (17:40) 7.5 (06:10) 16.5 6.67 (23:40) 4.17 (23:40) 0 0 0 0 0
17-04-2018 22.4 (18:10) 4.8 (07:40) 13.6 5.28 (14:10) 2.78 (14:10) 0 0 0 0 0
16-04-2018 18.4 (19:10) 5.9 (08:00) 12.1 11.11 (02:00) 6.94 (02:00) 6.6 6.6 0 0 0
15-04-2018 18.5 (15:40) 5.6 (00:00) 12 11.11 (16:40) 7.22 (17:20) 3.6 0 0 0 3.6
14-04-2018 18.2 (18:20) 3.1 (00:00) 10.7 7.5 (14:00) 3.61 (14:00) 0 0 0 0 0
13-04-2018 15.1 (17:10) 5 (00:00) 10.1 8.89 (00:40) 5 (00:40) 1.6 1.6 0 0 0
12-04-2018 12 (13:10) 4.4 (00:00) 8.2 9.17 (19:00) 5.56 (19:00) 3.8 0 0 0 3.8
11-04-2018 10.1 (18:00) 3.4 (00:00) 6.8 12.22 (17:50) 7.78 (16:00) 5.2 4.4 0 0 0.8
10-04-2018 7.2 (03:50) 3.1 (00:00) 5.1 15 (09:50) 7.22 (12:30) 20.2 0 6.4 6 7.8
09-04-2018 10 (01:00) 4.9 (00:00) 7.5 12.78 (17:20) 8.33 (16:10) 5.4 3 0.4 2 0
08-04-2018 15.2 (17:20) 5.9 (00:00) 10.5 10.56 (18:40) 6.39 (15:20) 0 0 0 0 0
07-04-2018 13.2 (00:00) 7.4 (00:00) 10.3 12.78 (00:40) 8.61 (00:30) 6.6 0.8 0 1.8 4
06-04-2018 18.3 (13:30) 6 (00:00) 12.1 15.28 (14:00) 9.72 (22:50) 5 0 0 1.4 3.6
05-04-2018 19.6 (17:40) 1.6 (00:00) 10.6 4.72 (14:40) 2.78 (15:40) 0 0 0 0 0
04-04-2018 16.5 (17:20) 7.3 (00:00) 11.9 13.89 (17:30) 9.17 (15:10) 0 0 0 0 0
03-04-2018 17.6 (16:30) 9.8 (00:00) 13.7 14.72 (16:40) 9.17 (14:30) 2 2 0 0 0
02-04-2018 20.3 (17:30) 6 (00:00) 13.1 12.22 (22:40) 7.22 (18:10) 0.2 0 0 0 0.2
01-04-2018 19.4 (17:50) 1.7 (00:00) 10.5 7.22 (13:10) 3.33 (18:30) 0 0 0 0 0
31-03-2018 14.6 (17:10) 3.4 (00:00) 9 13.06 (16:10) 7.5 (14:20) 0 0 0 0 0
30-03-2018 12.5 (17:20) 4.5 (00:00) 8.5 15.56 (21:00) 10.28 (20:00) 1.8 0 1.4 0 0.4
29-03-2018 15.9 (15:10) 7.2 (00:00) 11.5 13.33 (18:30) 8.89 (18:50) 0 0 0 0 0
28-03-2018 21.6 (17:40) 3.5 (00:00) 12.6 10.83 (17:20) 7.22 (17:20) 0 0 0 0 0
27-03-2018 21.3 (17:40) 3.1 (00:00) 12.2 6.39 (16:20) 3.61 (12:50) 0 0 0 0 0
26-03-2018 14.3 (17:40) 3.2 (00:00) 8.8 10.56 (19:00) 6.67 (14:40) 0 0 0 0 0
25-03-2018 12.5 (15:10) 4.6 (00:00) 8.5 10.56 (19:10) 6.67 (18:40) 0 0 0 0 0
24-03-2018 12.1 (17:10) 2.6 (00:00) 7.4 16.94 (14:30) 11.94 (14:30) 1.4 1.4 0 0 0
23-03-2018 14.6 (15:00) 0.9 (00:00) 7.8 13.06 (23:50) 7.5 (15:30) 2.4 0 0 0.4 2

Gráficas

Temp. máximas Temp. mínimas Temp. medias Precipitaciones Rachas de viento máximas Velocidades máximas media en intervalos de 10 minutos

Datos horarios

Fecha y hora oficial Temperatura (ºC) Velocidad del viento (km/h) Dirección del viento Racha (km/h) Dirección de racha Precipitación (mm) Presión (hPa) Tendencia (hPa) Humedad (%)
2018-04-21 23:00:00 14.1 0 Calma 4 Oeste 0 -- -- 77
2018-04-21 22:00:00 16.1 0 Calma 8 Norte 0 -- -- 71
2018-04-21 21:00:00 17.9 2 Sudeste 12 Norte 0 -- -- 65
2018-04-21 20:00:00 19.1 8 Norte 14 Noroeste 0 -- -- 57
2018-04-21 19:00:00 21.1 5 Nordeste 9 Este 0 -- -- 48
2018-04-21 18:00:00 20.5 7 Norte 14 Sur 0 -- -- 48
2018-04-21 17:00:00 21.2 6 Sur 15 Sur 0 -- -- 46
2018-04-21 16:00:00 19.2 7 Este 24 Nordeste 0 -- -- 54
2018-04-21 15:00:00 16.9 14 Nordeste 22 Este 0 -- -- 61
2018-04-21 14:00:00 16.3 11 Nordeste 17 Nordeste 0 -- -- 63
2018-04-21 13:00:00 15.8 9 Nordeste 19 Nordeste 0 -- -- 62
2018-04-21 12:00:00 14.9 13 Nordeste 20 Nordeste 0 -- -- 66
2018-04-21 11:00:00 12.6 6 Este 11 Este 0 -- -- 75
2018-04-21 10:00:00 11.5 6 Este 14 Este 0 -- -- 79
2018-04-21 09:00:00 10.1 6 Este 11 Este 0 -- -- 83
2018-04-21 08:00:00 8.8 8 Este 20 Este 0 -- -- 85
2018-04-21 07:00:00 8.6 9 Este 12 Nordeste 0 -- -- 85
2018-04-21 06:00:00 10.3 4 Sudeste 9 Nordeste 0 -- -- 77
2018-04-21 05:00:00 11.4 5 Este 14 Norte 0 -- -- 73
2018-04-21 04:00:00 12.2 4 Este 13 Nordeste 0 -- -- 69
2018-04-21 03:00:00 12.7 6 Nordeste 10 Norte 0 -- -- 66
2018-04-21 02:00:00 12.8 4 Este 12 Este 0 -- -- 65
2018-04-21 01:00:00 14.1 4 Norte 28 Sudeste 0 -- -- 61
2018-04-21 00:00:00 14.7 14 Sudeste 27 Sudeste 0 -- -- 59
2018-04-20 23:00:00 15.6 9 Sudeste 20 Sudeste 0 -- -- 55
2018-04-20 22:00:00 16 6 Oeste 31 Sudeste 0 -- -- 56
2018-04-20 21:00:00 17.7 16 Sur 32 Sur 0 -- -- 51
2018-04-20 20:00:00 20.4 15 Sur 28 Sur 0 -- -- 44
2018-04-20 19:00:00 21.6 19 Sur 32 Sur 0 -- -- 40
2018-04-20 18:00:00 22.2 17 Sur 35 Sur 0 -- -- 40
2018-04-20 17:00:00 22.4 17 Sur 34 Sur 0 -- -- 42
2018-04-20 16:00:00 22.2 15 Sur 34 Sur 0 -- -- 39
2018-04-20 15:00:00 21.1 13 Sudeste 33 Sudeste 0 -- -- 46
2018-04-20 14:00:00 20.4 8 Sudeste 29 Sudeste 0 -- -- 48
2018-04-20 13:00:00 19.3 14 Sudeste 29 Sudeste 0 -- -- 51
2018-04-20 12:00:00 18 16 Sudeste 30 Sudeste 0 -- -- 52
2018-04-20 11:00:00 16 6 Este 14 Este 0 -- -- 61
2018-04-20 10:00:00 14.3 7 Este 12 Este 0 -- -- 70
2018-04-20 09:00:00 11.7 8 Este 12 Este 0 -- -- 77
2018-04-20 08:00:00 9.5 3 Sur 8 Este 0 -- -- 82
2018-04-20 07:00:00 10.5 2 Sudoeste 10 Noroeste 0 -- -- 77
2018-04-20 06:00:00 12.3 4 Nordeste 14 Oeste 0 -- -- 71
2018-04-20 05:00:00 12 0 Calma 9 Nordeste 0 -- -- 71
2018-04-20 04:00:00 12.9 6 Nordeste 16 Nordeste 0 -- -- 67
2018-04-20 03:00:00 14.2 5 Este 22 Sudeste 0 -- -- 62
2018-04-20 02:00:00 15.7 5 Nordeste 24 Sudeste 0 -- -- 57
2018-04-20 01:00:00 16.4 7 Sudeste 37 Sur 0 -- -- 54
2018-04-20 00:00:00 16.5 24 Sudeste 42 Sudeste 0 -- -- 55
2018-04-19 23:00:00 16.8 23 Sur 40 Sur 0 -- -- 54
2018-04-19 22:00:00 17.7 15 Sur 32 Sur 0 -- -- 50
2018-04-19 21:00:00 19.3 12 Sur 28 Sur 0 -- -- 48
2018-04-19 20:00:00 21.5 18 Sur 26 Sur 0 -- -- 41
2018-04-19 19:00:00 23.3 14 Sudoeste 24 Sudoeste 0 -- -- 38
2018-04-19 18:00:00 24.1 12 Sudoeste 21 Sur 0 -- -- 36
2018-04-19 17:00:00 24.2 12 Sur 22 Sudoeste 0 -- -- 36
2018-04-19 16:00:00 23.8 7 Sudeste 18 Sudeste 0 -- -- 31
2018-04-19 15:00:00 23.5 6 Sur 20 Sur 0 -- -- 36
2018-04-19 14:00:00 22.8 6 Sur 23 Sudoeste 0 -- -- 37
2018-04-19 13:00:00 22.1 3 Sudeste 14 Sudeste 0 -- -- 39
2018-04-19 12:00:00 19.7 4 Nordeste 12 Nordeste 0 -- -- 47
2018-04-19 11:00:00 17.6 9 Este 14 Este 0 -- -- 58
2018-04-19 10:00:00 14.2 11 Este 16 Nordeste 0 -- -- 66
2018-04-19 09:00:00 10.8 11 Este 18 Este 0 -- -- 79
2018-04-19 08:00:00 8.8 10 Este 14 Este 0 -- -- 83
2018-04-19 07:00:00 9 6 Este 9 Este 0 -- -- 82
2018-04-19 06:00:00 9.7 6 Este 10 Este 0 -- -- 80
2018-04-19 05:00:00 10.6 7 Este 9 Nordeste 0 -- -- 73
2018-04-19 04:00:00 12 2 Sudeste 8 Sudeste 0 -- -- 64
2018-04-19 03:00:00 15.6 5 Sur 17 Sur 0 -- -- 47
2018-04-19 02:00:00 15.3 4 Este 21 Sur 0 -- -- 50
2018-04-19 01:00:00 16.5 11 Sudeste 24 Sur 0 -- -- 45
2018-04-19 00:00:00 17.2 14 Sur 24 Sur 0 -- -- 45
2018-04-18 23:00:00 17.7 11 Sur 19 Sur 0 -- -- 44
2018-04-18 22:00:00 18.3 6 Sur 14 Sur 0 -- -- 44
2018-04-18 21:00:00 21 6 Sur 11 Sudoeste 0 -- -- 42
2018-04-18 20:00:00 23.9 9 Sudoeste 18 Sudoeste 0 -- -- 36
2018-04-18 19:00:00 24.8 12 Sudoeste 20 Sudoeste 0 -- -- 37
2018-04-18 18:00:00 25.5 5 Sudoeste 17 Sur 0 -- -- 36
2018-04-18 17:00:00 25.1 7 Sudeste 21 Sur 0 -- -- 38
2018-04-18 16:00:00 24.8 5 Sur 18 Sur 0 -- -- 38
2018-04-18 15:00:00 24.1 11 Sur 20 Sudeste 0 -- -- 43
2018-04-18 14:00:00 23.4 9 Sur 20 Sudoeste 0 -- -- 42
2018-04-18 13:00:00 22.2 9 Sudoeste 19 Sudoeste 0 -- -- 50
2018-04-18 12:00:00 19.8 4 Este 10 Nordeste 0 -- -- 56
2018-04-18 11:00:00 17.1 9 Nordeste 15 Nordeste 0 -- -- 64
2018-04-18 10:00:00 13.5 10 Este 17 Este 0 -- -- 75
2018-04-18 09:00:00 9.9 9 Este 16 Este 0 -- -- 87
2018-04-18 08:00:00 7.6 7 Nordeste 12 Nordeste 0 -- -- 91
2018-04-18 07:00:00 7.9 7 Este 14 Nordeste 0 -- -- 90
2018-04-18 06:00:00 7.6 5 Este 10 Este 0 -- -- 90
2018-04-18 05:00:00 8.1 6 Este 10 Este 0 -- -- 89
2018-04-18 04:00:00 8.9 8 Nordeste 12 Este 0 -- -- 87
2018-04-18 03:00:00 9.2 6 Este 9 Este 0 -- -- 87
2018-04-18 02:00:00 9.4 7 Nordeste 9 Nordeste 0 -- -- 86
2018-04-18 01:00:00 9.9 6 Este 8 Este 0 -- -- 82
2018-04-18 00:00:00 11.1 5 Nordeste 7 Nordeste 0 -- -- 80
2018-04-17 23:00:00 12.8 6 Nordeste 7 Nordeste 0 -- -- 76
2018-04-17 22:00:00 15.4 4 Este 6 Sudeste 0 -- -- 70
2018-04-17 21:00:00 19.2 0 Calma 8 Oeste 0 -- -- 59
2018-04-17 20:00:00 21.5 6 Sudoeste 9 Sudoeste 0 -- -- 44
2018-04-17 19:00:00 22 6 Oeste 10 Noroeste 0 -- -- 38
2018-04-17 18:00:00 22.3 2 Oeste 12 Oeste 0 -- -- 37
2018-04-17 17:00:00 21.5 5 Noroeste 16 Noroeste 0 -- -- 39
2018-04-17 16:00:00 20.9 5 Oeste 18 Oeste 0 -- -- 44
2018-04-17 15:00:00 19.7 10 Noroeste 19 Oeste 0 -- -- 48
2018-04-17 14:00:00 18.6 7 Oeste 17 Oeste 0 -- -- 50
2018-04-17 13:00:00 17 5 Oeste 11 Oeste 0 -- -- 62
2018-04-17 12:00:00 15 2 Nordeste 8 Oeste 0 -- -- 70
2018-04-17 11:00:00 13.3 2 Sudeste 9 Este 0 -- -- 73
2018-04-17 10:00:00 10.3 5 Este 14 Este 0 -- -- 82
2018-04-17 09:00:00 7.1 9 Este 14 Este 0 -- -- 92
2018-04-17 08:00:00 5 6 Este 8 Este 0 -- -- 95
2018-04-17 07:00:00 5.2 4 Este 9 Este 0 -- -- 94
2018-04-17 06:00:00 5.5 6 Este 8 Este 0 -- -- 94
2018-04-17 05:00:00 5.9 2 Sudeste 10 Nordeste 0 -- -- 93
2018-04-17 04:00:00 6.2 5 Este 8 Este 0 -- -- 92
2018-04-17 03:00:00 7.2 3 Nordeste 9 Nordeste 0 -- -- 90
2018-04-17 02:00:00 8.2 5 Nordeste 8 Nordeste 0 -- -- 88
2018-04-17 01:00:00 9.6 2 Noroeste 5 Oeste 0 -- -- 82
2018-04-17 00:00:00 10.7 0 Calma 10 Sudoeste 0 -- -- 78
2018-04-16 23:00:00 12.1 5 Sudoeste 18 Sudoeste 0 -- -- 72
2018-04-16 22:00:00 13.1 8 Sudoeste 17 Sudoeste 0 -- -- 69
2018-04-16 21:00:00 14.4 6 Sudoeste 12 Sudoeste 0 -- -- 63
2018-04-16 20:00:00 17.7 5 Noroeste 12 Noroeste 0 -- -- 48
2018-04-16 19:00:00 18.2 2 Sudoeste 14 Oeste 0 -- -- 43
2018-04-16 18:00:00 17.6 7 Noroeste 19 Oeste 0 -- -- 48
2018-04-16 17:00:00 17.3 3 Noroeste 18 Oeste 0 -- -- 49
2018-04-16 16:00:00 16.3 5 Oeste 15 Noroeste 0 -- -- 52
2018-04-16 15:00:00 15.4 10 Norte 21 Noroeste 0 -- -- 56
2018-04-16 14:00:00 13.9 9 Norte 21 Norte 0 -- -- 56
2018-04-16 13:00:00 13.7 9 Nordeste 22 Norte 0 -- -- 63
2018-04-16 12:00:00 12.6 9 Norte 22 Norte 0 -- -- 67
2018-04-16 11:00:00 11.5 10 Norte 26 Noroeste 0 -- -- 68
2018-04-16 10:00:00 10.1 12 Noroeste 21 Noroeste 0 -- -- 76
2018-04-16 09:00:00 7.8 5 Oeste 9 Sudoeste 0 -- -- 96
2018-04-16 08:00:00 5.9 2 Sur 5 Sudoeste 0 -- -- 94
2018-04-16 07:00:00 6.6 3 Sudoeste 8 Sudoeste 0 -- -- 94
2018-04-16 06:00:00 7.6 5 Oeste 8 Sudeste 0.2 -- -- 93
2018-04-16 05:00:00 8 6 Noroeste 15 Sudoeste 1.2 -- -- 91
2018-04-16 04:00:00 8.7 4 Sudoeste 20 Este 0 -- -- 92
2018-04-16 03:00:00 9 9 Este 30 Norte 2 -- -- 91
2018-04-16 02:00:00 10.9 25 Oeste 40 Oeste 2 -- -- 88
2018-04-16 01:00:00 12.2 13 Sur 25 Sudoeste 1.2 -- -- 92
2018-04-16 00:00:00 12.3 6 Sudoeste 13 Sudoeste 3.6 -- -- 92
2018-04-15 23:00:00 13.1 9 Sudoeste 25 Sudoeste 0 -- -- 84
2018-04-15 22:00:00 13.6 16 Sudoeste 27 Sudoeste 0 -- -- 81
2018-04-15 21:00:00 14.2 17 Sudoeste 33 Oeste 0 -- -- 76
2018-04-15 20:00:00 14.9 18 Sudoeste 30 Sudoeste 0 -- -- 73
2018-04-15 19:00:00 15.6 15 Sudoeste 37 Sudoeste 0 -- -- 70
2018-04-15 18:00:00 16.5 21 Sudoeste 39 Sudoeste 0 -- -- 68
2018-04-15 17:00:00 16.9 24 Sudoeste 40 Sudoeste 0 -- -- 66
2018-04-15 16:00:00 18.1 21 Sudoeste 33 Oeste 0 -- -- 60
2018-04-15 15:00:00 17.7 18 Sudoeste 31 Sudoeste 0 -- -- 57
2018-04-15 14:00:00 16.9 13 Sudoeste 22 Oeste 0 -- -- 61
2018-04-15 13:00:00 16 11 Sudoeste 22 Oeste 0 -- -- 66
2018-04-15 12:00:00 13.8 8 Sudoeste 19 Oeste 0 -- -- 76
2018-04-15 11:00:00 12.2 8 Sudoeste 15 Oeste 0 -- -- 79
2018-04-15 10:00:00 10 2 Este 8 Este 0 -- -- 87
2018-04-15 09:00:00 7.7 6 Este 9 Este 0 -- -- 91
2018-04-15 08:00:00 6.8 4 Este 12 Nordeste 0 -- -- 91
2018-04-15 07:00:00 6.4 3 Este 5 Este 0 -- -- 92
2018-04-15 06:00:00 6.1 0 Calma 10 Nordeste 0 -- -- 92
2018-04-15 05:00:00 5.7 5 Este 8 Nordeste 0 -- -- 92
2018-04-15 04:00:00 6.1 2 Este 5 Norte 0 -- -- 90
2018-04-15 03:00:00 6.8 4 Este 6 Nordeste 0 -- -- 88
2018-04-15 02:00:00 7.7 3 Norte 4 Norte 0 -- -- 87
2018-04-15 01:00:00 8.5 2 Este 4 Nordeste 0 -- -- 83
2018-04-15 00:00:00 9.8 0 Calma 4 Oeste 0 -- -- 77
2018-04-14 23:00:00 10.8 0 Calma 12 Sur 0 -- -- 73
2018-04-14 22:00:00 12.4 5 Sudoeste 11 Sudoeste 0 -- -- 62
2018-04-14 21:00:00 14.7 4 Sur 13 Sudoeste 0 -- -- 58
2018-04-14 20:00:00 17.5 4 Sudoeste 15 Sudoeste 0 -- -- 46
2018-04-14 19:00:00 17.7 7 Oeste 19 Oeste 0 -- -- 44
2018-04-14 18:00:00 17.6 7 Noroeste 14 Oeste 0 -- -- 45
2018-04-14 17:00:00 17.3 5 Noroeste 16 Norte 0 -- -- 48
2018-04-14 16:00:00 16.2 5 Nordeste 13 Norte 0 -- -- 49
2018-04-14 15:00:00 15.6 8 Noroeste 21 Norte 0 -- -- 49
2018-04-14 14:00:00 14.7 13 Norte 27 Norte 0 -- -- 55
2018-04-14 13:00:00 14.1 7 Nordeste 18 Nordeste 0 -- -- 57
2018-04-14 12:00:00 12.6 8 Este 15 Este 0 -- -- 68
2018-04-14 11:00:00 9.9 5 Nordeste 10 Este 0 -- -- 78
2018-04-14 10:00:00 6.6 8 Nordeste 14 Este 0 -- -- 87
2018-04-14 09:00:00 4.3 6 Este 10 Este 0 -- -- 94
2018-04-14 08:00:00 3.3 0 Calma 5 Nordeste 0 -- -- 93
2018-04-14 07:00:00 3.2 5 Este 10 Este 0 -- -- 94
2018-04-14 06:00:00 3.4 6 Este 10 Este 0 -- -- 94
2018-04-14 05:00:00 3.8 5 Nordeste 10 Este 0 -- -- 93
2018-04-14 04:00:00 4.1 7 Este 9 Este 0 -- -- 92
2018-04-14 03:00:00 4.6 6 Este 8 Nordeste 0 -- -- 91
2018-04-14 02:00:00 5.5 5 Nordeste 8 Este 0 -- -- 90
2018-04-14 01:00:00 6.2 4 Nordeste 5 Nordeste 0 -- -- 88
2018-04-14 00:00:00 6.9 4 Este 6 Este 0 -- -- 85
2018-04-13 23:00:00 8.7 2 Sudoeste 4 Sudeste 0 -- -- 80
2018-04-13 22:00:00 10.2 2 Oeste 9 Sur 0 -- -- 72
2018-04-13 21:00:00 10.5 6 Sur 10 Sur 0 -- -- 69
2018-04-13 20:00:00 12.1 7 Sur 21 Sur 0 -- -- 60
2018-04-13 19:00:00 14.3 10 Sudoeste 22 Sudoeste 0 -- -- 55
2018-04-13 18:00:00 14.1 9 Oeste 25 Oeste 0 -- -- 54
2018-04-13 17:00:00 14.8 9 Oeste 19 Oeste 0 -- -- 51
2018-04-13 16:00:00 13.9 9 Oeste 21 Oeste 0 -- -- 57
2018-04-13 15:00:00 13.3 11 Sudoeste 26 Sur 0 -- -- 56
2018-04-13 14:00:00 12 13 Sudoeste 24 Oeste 0 -- -- 60
2018-04-13 13:00:00 10.8 12 Sudoeste 24 Sudoeste 0 -- -- 70
2018-04-13 12:00:00 9.1 11 Sudoeste 22 Sudoeste 0 -- -- 75
2018-04-13 11:00:00 9 12 Sudoeste 21 Sudoeste 0 -- -- 77
2018-04-13 10:00:00 7.2 10 Sudoeste 16 Oeste 0 -- -- 85
2018-04-13 09:00:00 6 8 Sudoeste 20 Sudoeste 0 -- -- 92
2018-04-13 08:00:00 5.3 7 Sudoeste 15 Oeste 0 -- -- 94
2018-04-13 07:00:00 5.2 11 Sudoeste 28 Sudoeste 0 -- -- 92
2018-04-13 06:00:00 5.7 14 Sudoeste 24 Sudoeste 0 -- -- 91
2018-04-13 05:00:00 6 14 Sudoeste 28 Sudoeste 0 -- -- 91
2018-04-13 04:00:00 6.6 14 Sudoeste 29 Sudoeste 0.2 -- -- 90
2018-04-13 03:00:00 6.8 11 Sudoeste 26 Sur 0.2 -- -- 91
2018-04-13 02:00:00 6.8 9 Sudoeste 28 Oeste 0.8 -- -- 90
2018-04-13 01:00:00 7.3 18 Sudoeste 32 Sur 0.4 -- -- 89
2018-04-13 00:00:00 7.6 11 Sur 22 Sur 1.2 -- -- 89
2018-04-12 23:00:00 7.4 8 Sudeste 19 Sur 1.6 -- -- 89
2018-04-12 22:00:00 7.5 10 Sur 23 Sur 1 -- -- 88
2018-04-12 21:00:00 8.3 10 Sur 18 Sur 0 -- -- 81
2018-04-12 20:00:00 8.7 5 Sudoeste 24 Sudoeste 0 -- -- 84
2018-04-12 19:00:00 9.4 20 Sudoeste 33 Sudoeste 0 -- -- 80
2018-04-12 18:00:00 11.1 17 Sudoeste 26 Sudoeste 0 -- -- 68
2018-04-12 17:00:00 11.6 13 Sudoeste 21 Oeste 0 -- -- 66
2018-04-12 16:00:00 11.6 16 Sudoeste 31 Sudoeste 0 -- -- 62
2018-04-12 15:00:00 11.3 15 Sudoeste 28 Sudoeste 0 -- -- 62
2018-04-12 14:00:00 10.5 14 Sudoeste 27 Sudoeste 0 -- -- 68
2018-04-12 13:00:00 11.5 15 Sudoeste 27 Sudoeste 0 -- -- 68
2018-04-12 12:00:00 9.6 14 Sudoeste 25 Sudoeste 0 -- -- 79
2018-04-12 11:00:00 7.9 10 Sudoeste 25 Sudoeste 0 -- -- 84
2018-04-12 10:00:00 6.6 12 Sudoeste 24 Sudoeste 0 -- -- 86
2018-04-12 09:00:00 6 7 Sudoeste 12 Sudoeste 0 -- -- 90
2018-04-12 08:00:00 4.5 3 Oeste 10 Sudoeste 0 -- -- 88
2018-04-12 07:00:00 5.6 7 Sudoeste 19 Noroeste 0 -- -- 85
2018-04-12 06:00:00 6.2 9 Oeste 21 Noroeste 0 -- -- 85
2018-04-12 05:00:00 7.2 12 Oeste 18 Oeste 0 -- -- 80
2018-04-12 04:00:00 7.5 14 Noroeste 28 Oeste 0 -- -- 80
2018-04-12 03:00:00 7.9 14 Oeste 26 Oeste 0 -- -- 79
2018-04-12 02:00:00 8.4 17 Oeste 25 Noroeste 0 -- -- 75
2018-04-12 01:00:00 9 14 Noroeste 26 Noroeste 0 -- -- 72
2018-04-12 00:00:00 8.6 14 Oeste 31 Oeste 0 -- -- 77
2018-04-11 23:00:00 7.1 9 Oeste 12 Oeste 0.6 -- -- 88
2018-04-11 22:00:00 7.5 3 Norte 8 Norte 0.2 -- -- 85
2018-04-11 21:00:00 8.7 5 Norte 33 Oeste 0 -- -- 75
2018-04-11 20:00:00 9.6 18 Oeste 32 Oeste 0 -- -- 64
2018-04-11 19:00:00 9.7 22 Oeste 42 Noroeste 0 -- -- 65
2018-04-11 18:00:00 10.1 26 Oeste 44 Oeste 0 -- -- 62
2018-04-11 17:00:00 9.7 26 Oeste 40 Oeste 0 -- -- 60
2018-04-11 16:00:00 8.9 28 Oeste 41 Oeste 0 -- -- 65
2018-04-11 15:00:00 7.9 22 Oeste 36 Oeste 0 -- -- 66
2018-04-11 14:00:00 6.9 17 Oeste 32 Oeste 0 -- -- 71
2018-04-11 13:00:00 6.3 16 Oeste 27 Oeste 0 -- -- 73
2018-04-11 12:00:00 5.8 10 Oeste 18 Oeste 0 -- -- 79
2018-04-11 11:00:00 5.5 9 Oeste 15 Oeste 0 -- -- 83
2018-04-11 10:00:00 4.7 5 Sur 12 Sudoeste 0 -- -- 87
2018-04-11 09:00:00 4.6 4 Norte 35 Noroeste 0 -- -- 82
2018-04-11 08:00:00 4.9 19 Norte 36 Noroeste 0 -- -- 78
2018-04-11 07:00:00 3.6 7 Oeste 14 Oeste 0 -- -- 93
2018-04-11 06:00:00 3.4 5 Sudoeste 15 Oeste 0 -- -- 92
2018-04-11 05:00:00 3.8 3 Sudoeste 13 Sudoeste 0 -- -- 91
2018-04-11 04:00:00 3.7 6 Sudoeste 17 Sudoeste 0.2 -- -- 92
2018-04-11 03:00:00 4 11 Sudoeste 20 Sudoeste 0.6 -- -- 91
2018-04-11 02:00:00 4 7 Sudoeste 13 Sudoeste 1.4 -- -- 94
2018-04-11 01:00:00 3.9 4 Sudoeste 13 Oeste 2.2 -- -- 95
2018-04-11 00:00:00 3.5 6 Oeste 16 Oeste 2.2 -- -- 95
2018-04-10 23:00:00 3.1 8 Sudoeste 13 Noroeste 1.2 -- -- 93
2018-04-10 22:00:00 3.3 10 Norte 24 Noroeste 1.8 -- -- 91
2018-04-10 21:00:00 3.7 11 Noroeste 40 Oeste 2.6 -- -- 90
2018-04-10 20:00:00 6.6 6 Sudoeste 17 Sudoeste 0 -- -- 89
2018-04-10 19:00:00 6.9 10 Sudoeste 24 Sudoeste 0 -- -- 89
2018-04-10 18:00:00 6.8 12 Sudoeste 32 Sudoeste 0 -- -- 88
2018-04-10 17:00:00 6.7 13 Sudoeste 31 Oeste 0.6 -- -- 89
2018-04-10 16:00:00 6.5 23 Sudoeste 37 Oeste 1.4 -- -- 89
2018-04-10 15:00:00 6.6 13 Sudoeste 41 Sudoeste 1 -- -- 90
2018-04-10 14:00:00 6.2 18 Sudoeste 40 Sudoeste 1.8 -- -- 90
2018-04-10 13:00:00 6 17 Sudoeste 48 Sudoeste 1.2 -- -- 92
2018-04-10 12:00:00 6.3 20 Sudoeste 45 Sudoeste 2 -- -- 90
2018-04-10 11:00:00 6.5 20 Sudoeste 41 Sudoeste 2.2 -- -- 90
2018-04-10 10:00:00 6.6 20 Sudoeste 54 Sudoeste 1 -- -- 89
2018-04-10 09:00:00 6.7 22 Sudoeste 39 Sudoeste 0.8 -- -- 90
2018-04-10 08:00:00 6.7 15 Sudoeste 33 Sudoeste 0.4 -- -- 91
2018-04-10 07:00:00 7.1 18 Sudoeste 35 Sudoeste 0 -- -- 87
2018-04-10 06:00:00 6.9 17 Sudoeste 31 Sudoeste 0 -- -- 89
2018-04-10 05:00:00 7 17 Sudoeste 28 Sudoeste 0 -- -- 92
2018-04-10 04:00:00 7.1 15 Sudoeste 28 Sudoeste 0 -- -- 92
2018-04-10 03:00:00 6.9 12 Sudoeste 28 Sudoeste 0 -- -- 89
2018-04-10 02:00:00 6.7 15 Sudoeste 30 Sudoeste 0 -- -- 89
2018-04-10 01:00:00 6.5 16 Sudoeste 30 Sudoeste 0 -- -- 89
2018-04-10 00:00:00 6.5 18 Sudoeste 32 Oeste 0 -- -- 89
2018-04-09 23:00:00 6.3 19 Oeste 32 Sudoeste 0 -- -- 87
2018-04-09 22:00:00 6.5 15 Sudoeste 32 Sudoeste 0 -- -- 84
2018-04-09 21:00:00 6.6 19 Sudoeste 36 Oeste 0 -- -- 79
2018-04-09 20:00:00 7.1 17 Sudoeste 36 Sudoeste 0 -- -- 77
2018-04-09 19:00:00 7.7 19 Sudoeste 37 Sudoeste 0 -- -- 72
2018-04-09 18:00:00 7.4 22 Sudoeste 46 Sudoeste 0 -- -- 74
2018-04-09 17:00:00 7.2 23 Oeste 43 Sudoeste 0 -- -- 76
2018-04-09 16:00:00 7 23 Sudoeste 45 Sudoeste 0 -- -- 85
2018-04-09 15:00:00 6.9 22 Sudoeste 39 Sudoeste 0 -- -- 87
2018-04-09 14:00:00 5.4 18 Sudoeste 35 Sudoeste 1.4 -- -- 92
2018-04-09 13:00:00 6.4 10 Sudoeste 37 Oeste 0.6 -- -- 91
2018-04-09 12:00:00 6.5 15 Sudoeste 38 Sudoeste 0.4 -- -- 86
2018-04-09 11:00:00 7.1 13 Sudoeste 29 Sur 0 -- -- 78
2018-04-09 10:00:00 5.6 14 Sudoeste 25 Sudoeste 0 -- -- 82
2018-04-09 09:00:00 5.5 13 Sudoeste 27 Sur 0 -- -- 87
2018-04-09 08:00:00 5 6 Sudoeste 19 Sudoeste 0 -- -- 89
2018-04-09 07:00:00 5 15 Sudoeste 28 Sudoeste 0 -- -- 87
2018-04-09 06:00:00 5.2 12 Sudoeste 28 Sudoeste 0.2 -- -- 88
2018-04-09 05:00:00 5.5 10 Sudoeste 22 Sudoeste 0.8 -- -- 91
2018-04-09 04:00:00 5.9 16 Sudoeste 39 Oeste 1.4 -- -- 89
2018-04-09 03:00:00 8 13 Sudoeste 24 Sudoeste 0.4 -- -- 84
2018-04-09 02:00:00 9.2 10 Sudoeste 24 Sudoeste 0.2 -- -- 80
2018-04-09 01:00:00 10 14 Sudoeste 29 Sudoeste 0 -- -- 72
2018-04-09 00:00:00 9.5 8 Sudoeste 24 Oeste 0 -- -- 72
2018-04-08 23:00:00 10.4 16 Sudoeste 28 Sudoeste 0 -- -- 72
2018-04-08 22:00:00 11.1 8 Sudoeste 24 Sudoeste 0 -- -- 71
2018-04-08 21:00:00 11.5 16 Sudoeste 27 Oeste 0 -- -- 68
2018-04-08 20:00:00 12.7 13 Sudoeste 27 Sudoeste 0 -- -- 61
2018-04-08 19:00:00 12.4 16 Sudoeste 38 Oeste 0 -- -- 62
2018-04-08 18:00:00 13.9 11 Sudoeste 27 Sur 0 -- -- 60
2018-04-08 17:00:00 14.9 14 Sudoeste 30 Oeste 0 -- -- 61
2018-04-08 16:00:00 13.5 19 Oeste 35 Oeste 0 -- -- 55
2018-04-08 15:00:00 13.4 20 Oeste 32 Oeste 0 -- -- 56
2018-04-08 14:00:00 12.2 4 Sudoeste 9 Sudeste 0 -- -- 65
2018-04-08 13:00:00 12.1 4 Norte 19 Sudeste 0 -- -- 70
2018-04-08 12:00:00 10.6 4 Oeste 16 Oeste 0 -- -- 78
2018-04-08 11:00:00 8.1 8 Oeste 15 Oeste 0 -- -- 89
2018-04-08 10:00:00 6.8 7 Oeste 16 Oeste 0 -- -- 93
2018-04-08 09:00:00 6.5 5 Sudoeste 12 Oeste 0 -- -- 95
2018-04-08 08:00:00 6.3 5 Oeste 9 Oeste 0 -- -- 96
2018-04-08 07:00:00 6 0 Calma 4 Sudoeste 0 -- -- 96
2018-04-08 06:00:00 5.9 2 Sudoeste 4 Sudeste 0 -- -- 95
2018-04-08 05:00:00 6.2 0 Calma 8 Oeste 0 -- -- 94
2018-04-08 04:00:00 6.6 0 Calma 5 Sudoeste 0 -- -- 94
2018-04-08 03:00:00 7 2 Sudeste 10 Nordeste 0 -- -- 93
2018-04-08 02:00:00 7.3 3 Nordeste 6 Nordeste 0 -- -- 94
2018-04-08 01:00:00 7.5 2 Este 5 Sudoeste 0 -- -- 94
2018-04-08 00:00:00 7.4 4 Oeste 6 Oeste 0 -- -- 93
2018-04-07 23:00:00 7.8 2 Este 4 Sudeste 0 -- -- 91
2018-04-07 22:00:00 7.6 4 Sudeste 13 Este 2.6 -- -- 90
2018-04-07 21:00:00 8.4 7 Este 20 Nordeste 1.4 -- -- 88
2018-04-07 20:00:00 9.5 4 Sudoeste 13 Sudoeste 0 -- -- 85
2018-04-07 19:00:00 9.4 5 Sudoeste 14 Sudoeste 0 -- -- 88
2018-04-07 18:00:00 9.1 4 Sudoeste 9 Sudoeste 0.2 -- -- 90
2018-04-07 17:00:00 8.3 6 Sudoeste 21 Sudoeste 0.2 -- -- 90
2018-04-07 16:00:00 8.2 12 Sudoeste 26 Oeste 0.8 -- -- 89
2018-04-07 15:00:00 8.4 9 Sudoeste 21 Oeste 0.4 -- -- 93
2018-04-07 14:00:00 8.4 8 Sudoeste 21 Oeste 0.2 -- -- 92
2018-04-07 13:00:00 9.1 9 Sudoeste 18 Sudoeste 0 -- -- 88
2018-04-07 12:00:00 9.3 12 Sudoeste 21 Sudoeste 0 -- -- 87
2018-04-07 11:00:00 9.7 12 Oeste 17 Oeste 0 -- -- 86
2018-04-07 10:00:00 9.5 6 Sudoeste 13 Sudoeste 0 -- -- 89
2018-04-07 09:00:00 9.4 7 Sur 12 Sudoeste 0 -- -- 90
2018-04-07 08:00:00 9.3 2 Oeste 6 Sur 0 -- -- 90
2018-04-07 07:00:00 9.5 2 Sur 6 Sur 0 -- -- 89
2018-04-07 06:00:00 9.5 0 Calma 13 Oeste 0.4 -- -- 90
2018-04-07 05:00:00 9.9 8 Sudoeste 16 Sudoeste 0.2 -- -- 86
2018-04-07 04:00:00 11.2 4 Sudoeste 24 Sur 0.2 -- -- 88
2018-04-07 03:00:00 11.6 16 Sur 39 Sur 0 -- -- 84
2018-04-07 02:00:00 11.8 25 Sur 44 Sudeste 0 -- -- 80
2018-04-07 01:00:00 12.6 28 Sur 46 Sur 0 -- -- 78
2018-04-07 00:00:00 13.2 31 Sur 50 Sur 0 -- -- 81
2018-04-06 23:00:00 13.5 30 Sur 54 Sudeste 0.8 -- -- 82
2018-04-06 22:00:00 13.3 17 Sur 30 Sur 1.8 -- -- 89
2018-04-06 21:00:00 13.1 0 Calma 20 Este 0.2 -- -- 83
2018-04-06 20:00:00 14.2 7 Nordeste 15 Norte 0.6 -- -- 81
2018-04-06 19:00:00 15.5 9 Norte 23 Norte 0.2 -- -- 72
2018-04-06 18:00:00 16.3 14 Nordeste 20 Nordeste 0 -- -- 70
2018-04-06 17:00:00 15.4 9 Nordeste 13 Nordeste 0 -- -- 69
2018-04-06 16:00:00 15 4 Noroeste 16 Oeste 0.6 -- -- 69
2018-04-06 15:00:00 14.9 8 Oeste 16 Oeste 0.6 -- -- 72
2018-04-06 14:00:00 16.8 7 Oeste 55 Oeste 0.2 -- -- 55
2018-04-06 13:00:00 17.1 4 Norte 10 Norte 0 -- -- 50
2018-04-06 12:00:00 14.4 5 Nordeste 12 Este 0 -- -- 57
2018-04-06 11:00:00 11.8 8 Este 15 Este 0 -- -- 70
2018-04-06 10:00:00 8.9 12 Nordeste 16 Este 0 -- -- 81
2018-04-06 09:00:00 6.5 5 Este 10 Nordeste 0 -- -- 88
2018-04-06 08:00:00 6.3 7 Este 12 Este 0 -- -- 87
2018-04-06 07:00:00 6.2 0 Calma 8 Este 0 -- -- 88
2018-04-06 06:00:00 6.5 5 Nordeste 6 Este 0 -- -- 88
2018-04-06 05:00:00 6.7 2 Norte 8 Sudeste 0 -- -- 86
2018-04-06 04:00:00 7.6 5 Este 11 Este 0 -- -- 84
2018-04-06 03:00:00 7.2 6 Este 9 Este 0 -- -- 87
2018-04-06 02:00:00 7.5 2 Norte 9 Nordeste 0 -- -- 84
2018-04-06 01:00:00 7.8 3 Este 6 Nordeste 0 -- -- 85
2018-04-06 00:00:00 8.9 5 Este 8 Nordeste 0 -- -- 78
2018-04-05 23:00:00 10.2 6 Nordeste 9 Este 0 -- -- 74
2018-04-05 22:00:00 12.9 4 Nordeste 5 Nordeste 0 -- -- 66
2018-04-05 21:00:00 15.3 4 Sudeste 8 Nordeste 0 -- -- 57
2018-04-05 20:00:00 17.6 5 Norte 11 Nordeste 0 -- -- 48
2018-04-05 19:00:00 18.2 10 Nordeste 14 Nordeste 0 -- -- 45
2018-04-05 18:00:00 19.5 5 Noroeste 16 Oeste 0 -- -- 42
2018-04-05 17:00:00 19 6 Oeste 15 Oeste 0 -- -- 47
2018-04-05 16:00:00 17.8 2 Noroeste 17 Noroeste 0 -- -- 50
2018-04-05 15:00:00 16.6 8 Noroeste 17 Noroeste 0 -- -- 50
2018-04-05 14:00:00 15.7 5 Sudoeste 15 Oeste 0 -- -- 55
2018-04-05 13:00:00 14.2 6 Sudoeste 11 Sudoeste 0 -- -- 63
2018-04-05 12:00:00 12 4 Nordeste 10 Nordeste 0 -- -- 73
2018-04-05 11:00:00 10 6 Nordeste 10 Nordeste 0 -- -- 79
2018-04-05 10:00:00 7.4 5 Este 13 Este 0 -- -- 92
2018-04-05 09:00:00 4.1 7 Este 10 Nordeste 0 -- -- 97
2018-04-05 08:00:00 1.7 8 Nordeste 10 Nordeste 0 -- -- 95
2018-04-05 07:00:00 2 2 Este 6 Nordeste 0 -- -- 94
2018-04-05 06:00:00 2.8 3 Sudeste 8 Nordeste 0 -- -- 94
2018-04-05 05:00:00 3.6 5 Este 8 Este 0 -- -- 94
2018-04-05 04:00:00 4.4 6 Nordeste 9 Nordeste 0 -- -- 93
2018-04-05 03:00:00 5.4 3 Nordeste 5 Nordeste 0 -- -- 91
2018-04-05 02:00:00 6.4 0 Calma 8 Oeste 0 -- -- 88
2018-04-05 01:00:00 7.8 3 Sudoeste 8 Sur 0 -- -- 86
2018-04-05 00:00:00 8.9 0 Calma 14 Sudoeste 0 -- -- 81
2018-04-04 23:00:00 9.7 10 Oeste 15 Sudoeste 0 -- -- 80
2018-04-04 22:00:00 11.3 6 Sudoeste 23 Oeste 0 -- -- 72
2018-04-04 21:00:00 12.2 18 Oeste 35 Oeste 0 -- -- 66
2018-04-04 20:00:00 13.7 25 Oeste 43 Oeste 0 -- -- 60
2018-04-04 19:00:00 13.6 22 Oeste 46 Oeste 0 -- -- 65
2018-04-04 18:00:00 14.6 31 Oeste 50 Oeste 0 -- -- 57
2018-04-04 17:00:00 15.9 25 Oeste 43 Oeste 0 -- -- 53
2018-04-04 16:00:00 15.6 26 Oeste 47 Sudoeste 0 -- -- 55
2018-04-04 15:00:00 14 28 Sudoeste 49 Oeste 0 -- -- 58
2018-04-04 14:00:00 14.1 30 Oeste 47 Sudoeste 0 -- -- 58
2018-04-04 13:00:00 11.9 29 Sudoeste 48 Sudoeste 0 -- -- 65
2018-04-04 12:00:00 11.7 30 Sudoeste 43 Oeste 0 -- -- 68
2018-04-04 11:00:00 9.7 21 Sudoeste 36 Sudoeste 0 -- -- 76
2018-04-04 10:00:00 9.3 21 Sudoeste 36 Oeste 0 -- -- 76
2018-04-04 09:00:00 8.5 18 Sudoeste 39 Oeste 0 -- -- 80
2018-04-04 08:00:00 7.6 16 Sudoeste 28 Sudoeste 0 -- -- 82
2018-04-04 07:00:00 7.8 18 Sudoeste 28 Oeste 0 -- -- 83
2018-04-04 06:00:00 7.4 17 Sudoeste 36 Sudoeste 0 -- -- 82
2018-04-04 05:00:00 7.9 16 Sudoeste 34 Sudoeste 0 -- -- 79
2018-04-04 04:00:00 8.2 18 Sudoeste 36 Sudoeste 0 -- -- 82
2018-04-04 03:00:00 8.9 23 Sudoeste 36 Sudoeste 0 -- -- 74
2018-04-04 02:00:00 9.4 28 Oeste 49 Oeste 0 -- -- 76
2018-04-04 01:00:00 10.8 20 Sudoeste 38 Oeste 0 -- -- 66
2018-04-04 00:00:00 11.4 19 Sudoeste 30 Sudoeste 0 -- -- 68
2018-04-03 23:00:00 11.8 12 Sudoeste 19 Sudoeste 0 -- -- 70
2018-04-03 22:00:00 12.4 8 Sudoeste 19 Sudoeste 0 -- -- 68
2018-04-03 21:00:00 13.1 15 Oeste 39 Oeste 0 -- -- 63
2018-04-03 20:00:00 15.2 24 Sudoeste 45 Sudoeste 0 -- -- 46
2018-04-03 19:00:00 15.6 21 Sudoeste 48 Sudoeste 0 -- -- 46
2018-04-03 18:00:00 16.4 26 Sudoeste 52 Sudoeste 0 -- -- 42
2018-04-03 17:00:00 16.7 32 Sudoeste 53 Oeste 0 -- -- 44
2018-04-03 16:00:00 17.4 25 Sudoeste 51 Sudoeste 0 -- -- 43
2018-04-03 15:00:00 16.8 26 Sudoeste 51 Sudoeste 0 -- -- 48
2018-04-03 14:00:00 15.8 24 Sudoeste 52 Oeste 0 -- -- 51
2018-04-03 13:00:00 15.1 23 Sudoeste 43 Sudoeste 0 -- -- 62
2018-04-03 12:00:00 13.4 21 Sudoeste 36 Sudoeste 0 -- -- 70
2018-04-03 11:00:00 11.9 15 Sudoeste 30 Sudoeste 0 -- -- 76
2018-04-03 10:00:00 11.1 14 Sudoeste 27 Sudoeste 0 -- -- 81
2018-04-03 09:00:00 10.2 9 Sudoeste 17 Sudoeste 0 -- -- 89
2018-04-03 08:00:00 10 12 Sudoeste 22 Sudoeste 0 -- -- 88
2018-04-03 07:00:00 10.5 11 Sudoeste 22 Sudoeste 0 -- -- 87
2018-04-03 06:00:00 10.8 15 Sudoeste 27 Oeste 0 -- -- 91
2018-04-03 05:00:00 11.2 14 Sudoeste 25 Oeste 0 -- -- 91
2018-04-03 04:00:00 11.1 13 Sudoeste 22 Sudoeste 0.2 -- -- 91
2018-04-03 03:00:00 10.7 9 Sudoeste 28 Oeste 1.4 -- -- 90
2018-04-03 02:00:00 11.9 15 Sudoeste 27 Sudoeste 0.4 -- -- 85
2018-04-03 01:00:00 11.9 5 Sur 10 Noroeste 0 -- -- 86
2018-04-03 00:00:00 12.1 7 Sur 26 Oeste 0.2 -- -- 84
2018-04-02 23:00:00 13.5 18 Oeste 44 Oeste 0 -- -- 74
2018-04-02 22:00:00 15.3 8 Sudoeste 20 Sudoeste 0 -- -- 50
2018-04-02 21:00:00 15.6 10 Sudoeste 27 Sudoeste 0 -- -- 45
2018-04-02 20:00:00 17.6 20 Sudoeste 35 Oeste 0 -- -- 38
2018-04-02 19:00:00 19.3 19 Sudoeste 40 Oeste 0 -- -- 38
2018-04-02 18:00:00 20 23 Sudoeste 42 Oeste 0 -- -- 36
2018-04-02 17:00:00 20 19 Oeste 38 Sudoeste 0 -- -- 38
2018-04-02 16:00:00 19.4 19 Sudoeste 33 Sudoeste 0 -- -- 42
2018-04-02 15:00:00 18.1 19 Sudoeste 30 Sudoeste 0 -- -- 45
2018-04-02 14:00:00 17.7 15 Sudoeste 28 Sur 0 -- -- 45
2018-04-02 13:00:00 17.1 13 Sudoeste 25 Sudoeste 0 -- -- 46
2018-04-02 12:00:00 15.6 10 Sudoeste 20 Sudoeste 0 -- -- 46
2018-04-02 11:00:00 12.5 2 Nordeste 8 Oeste 0 -- -- 53
2018-04-02 10:00:00 9.9 3 Norte 6 Norte 0 -- -- 55
2018-04-02 09:00:00 7 2 Este 10 Este 0 -- -- 80
2018-04-02 08:00:00 6.1 3 Este 13 Norte 0 -- -- 77
2018-04-02 07:00:00 6.7 3 Este 14 Sudeste 0 -- -- 74
2018-04-02 06:00:00 7.7 2 Nordeste 9 Sur 0 -- -- 69
2018-04-02 05:00:00 9.2 2 Noroeste 17 Sudoeste 0 -- -- 64
2018-04-02 04:00:00 11.3 5 Norte 22 Este 0 -- -- 57
2018-04-02 03:00:00 11.8 6 Nordeste 21 Este 0 -- -- 54
2018-04-02 02:00:00 11.9 8 Este 17 Nordeste 0 -- -- 56
2018-04-02 01:00:00 10.6 5 Nordeste 15 Nordeste 0 -- -- 63
2018-04-02 00:00:00 11 7 Nordeste 10 Nordeste 0 -- -- 63
2018-04-01 23:00:00 11.7 3 Norte 6 Sudeste 0 -- -- 63
2018-04-01 22:00:00 13.4 5 Nordeste 6 Nordeste 0 -- -- 56
2018-04-01 21:00:00 14.8 6 Sudeste 8 Sudeste 0 -- -- 52
2018-04-01 20:00:00 16.9 3 Oeste 14 Sur 0 -- -- 45
2018-04-01 19:00:00 17.9 8 Sur 19 Sudoeste 0 -- -- 41
2018-04-01 18:00:00 19.3 5 Sur 26 Sudoeste 0 -- -- 39
2018-04-01 17:00:00 18.9 7 Sur 17 Sudeste 0 -- -- 40
2018-04-01 16:00:00 17.5 7 Oeste 15 Oeste 0 -- -- 43
2018-04-01 15:00:00 16.2 8 Noroeste 18 Oeste 0 -- -- 44
2018-04-01 14:00:00 15 6 Noroeste 26 Sudoeste 0 -- -- 48
2018-04-01 13:00:00 13.8 5 Oeste 12 Oeste 0 -- -- 53
2018-04-01 12:00:00 11.5 2 Nordeste 11 Este 0 -- -- 61
2018-04-01 11:00:00 8.1 5 Nordeste 10 Nordeste 0 -- -- 71
2018-04-01 10:00:00 4.6 8 Este 12 Nordeste 0 -- -- 83
2018-04-01 09:00:00 2.9 7 Este 11 Este 0 -- -- 85
2018-04-01 08:00:00 2.1 6 Este 14 Nordeste 0 -- -- 86
2018-04-01 07:00:00 1.9 6 Este 13 Este 0 -- -- 86
2018-04-01 06:00:00 1.8 3 Este 9 Nordeste 0 -- -- 86
2018-04-01 05:00:00 2.1 9 Nordeste 12 Nordeste 0 -- -- 85
2018-04-01 04:00:00 2.3 6 Nordeste 8 Nordeste 0 -- -- 85
2018-04-01 03:00:00 3.2 3 Nordeste 8 Nordeste 0 -- -- 78
2018-04-01 02:00:00 3.5 3 Nordeste 6 Nordeste 0 -- -- 76
2018-04-01 01:00:00 4.2 3 Nordeste 6 Nordeste 0 -- -- 74
2018-04-01 00:00:00 4.9 3 Oeste 4 Sudeste 0 -- -- 68
2018-03-31 23:00:00 6.5 4 Sur 8 Sur 0 -- -- 59
2018-03-31 22:00:00 9.3 3 Sur 16 Noroeste 0 -- -- 49
2018-03-31 21:00:00 10.9 4 Norte 16 Noroeste 0 -- -- 41
2018-03-31 20:00:00 12.6 15 Noroeste 28 Noroeste 0 -- -- 35
2018-03-31 19:00:00 14.2 17 Noroeste 31 Noroeste 0 -- -- 33
2018-03-31 18:00:00 13.8 21 Noroeste 38 Oeste 0 -- -- 33
2018-03-31 17:00:00 14.2 19 Noroeste 47 Noroeste 0 -- -- 32
2018-03-31 16:00:00 13.7 24 Noroeste 41 Oeste 0 -- -- 34
2018-03-31 15:00:00 12.6 18 Noroeste 36 Oeste 0 -- -- 38
2018-03-31 14:00:00 11.2 20 Noroeste 32 Noroeste 0 -- -- 39
2018-03-31 13:00:00 10.3 18 Noroeste 31 Noroeste 0 -- -- 47
2018-03-31 12:00:00 10.1 21 Noroeste 39 Oeste 0 -- -- 50
2018-03-31 11:00:00 8.4 24 Oeste 36 Oeste 0 -- -- 62
2018-03-31 10:00:00 6.5 18 Oeste 24 Sudoeste 0 -- -- 75
2018-03-31 09:00:00 4.8 13 Sudoeste 18 Sudoeste 0 -- -- 79
2018-03-31 08:00:00 3.7 8 Sudoeste 27 Sudoeste 0 -- -- 84
2018-03-31 07:00:00 3.4 19 Oeste 27 Sudoeste 0 -- -- 88
2018-03-31 06:00:00 4 19 Oeste 30 Oeste 0 -- -- 87
2018-03-31 05:00:00 4.1 18 Sudoeste 27 Sudoeste 0 -- -- 86
2018-03-31 04:00:00 4.4 19 Sudoeste 32 Sudoeste 0 -- -- 86
2018-03-31 03:00:00 4.2 15 Sudoeste 27 Oeste 0 -- -- 89
2018-03-31 02:00:00 4.5 15 Sudoeste 26 Oeste 0 -- -- 89
2018-03-31 01:00:00 4.9 15 Sudoeste 38 Oeste 0 -- -- 84
2018-03-31 00:00:00 5.1 24 Oeste 40 Sudoeste 0.2 -- -- 89
2018-03-30 23:00:00 5.4 24 Sudoeste 47 Oeste 0.2 -- -- 84
2018-03-30 22:00:00 6.2 30 Sudoeste 50 Oeste 0 -- -- 76
2018-03-30 21:00:00 8.1 36 Oeste 56 Oeste 0 -- -- 57
2018-03-30 20:00:00 9.5 37 Oeste 50 Oeste 0 -- -- 46
2018-03-30 19:00:00 10.3 30 Sudoeste 44 Sudoeste 0 -- -- 43
2018-03-30 18:00:00 9.7 24 Noroeste 53 Sudoeste 0 -- -- 56
2018-03-30 17:00:00 12.2 22 Sudoeste 44 Oeste 0 -- -- 43
2018-03-30 16:00:00 11.8 26 Sudoeste 42 Sudoeste 0 -- -- 46
2018-03-30 15:00:00 11.6 19 Oeste 40 Oeste 0 -- -- 51
2018-03-30 14:00:00 10.7 20 Oeste 41 Oeste 0 -- -- 57
2018-03-30 13:00:00 10.5 21 Sudoeste 40 Oeste 0 -- -- 55
2018-03-30 12:00:00 9.3 23 Oeste 36 Oeste 0 -- -- 53
2018-03-30 11:00:00 8.2 15 Sudoeste 28 Sudoeste 0 -- -- 67
2018-03-30 10:00:00 5.9 14 Oeste 24 Oeste 0 -- -- 76
2018-03-30 09:00:00 5.3 14 Sudoeste 24 Sudoeste 0.2 -- -- 84
2018-03-30 08:00:00 4.6 8 Sudoeste 50 Noroeste 1.2 -- -- 89
2018-03-30 07:00:00 6.8 21 Sudoeste 42 Sudoeste 0 -- -- 84
2018-03-30 06:00:00 7.2 22 Sudoeste 41 Sudoeste 0 -- -- 78
2018-03-30 05:00:00 7.5 21 Sudoeste 38 Sudoeste 0 -- -- 70
2018-03-30 04:00:00 7.8 17 Sudoeste 35 Oeste 0 -- -- 65
2018-03-30 03:00:00 7.8 14 Sudoeste 36 Oeste 0 -- -- 65
2018-03-30 02:00:00 8.2 29 Oeste 41 Sudoeste 0 -- -- 61
2018-03-30 01:00:00 8 13 Sudoeste 29 Sudoeste 0 -- -- 61
2018-03-30 00:00:00 8.4 11 Sudoeste 25 Sudoeste 0 -- -- 59
2018-03-29 23:00:00 8.9 9 Sudoeste 27 Sudoeste 0 -- -- 58
2018-03-29 22:00:00 9.5 11 Sudoeste 35 Oeste 0 -- -- 55
2018-03-29 21:00:00 11.1 18 Sudoeste 46 Sudoeste 0 -- -- 51
2018-03-29 20:00:00 13 25 Sudoeste 45 Sudoeste 0 -- -- 44
2018-03-29 19:00:00 14.4 28 Sudoeste 48 Sudoeste 0 -- -- 28
2018-03-29 18:00:00 15.1 27 Sudoeste 44 Sudoeste 0 -- -- 40
2018-03-29 17:00:00 15.4 25 Sudoeste 39 Oeste 0 -- -- 44
2018-03-29 16:00:00 15.8 23 Sudoeste 37 Sudoeste 0 -- -- 47
2018-03-29 15:00:00 15.3 17 Sudoeste 32 Sudoeste 0 -- -- 51
2018-03-29 14:00:00 15.1 16 Sudoeste 31 Sudoeste 0 -- -- 52
2018-03-29 13:00:00 14 20 Sudoeste 33 Sudoeste 0 -- -- 54
2018-03-29 12:00:00 13.2 14 Sudoeste 24 Sudoeste 0 -- -- 64
2018-03-29 11:00:00 11.3 10 Sudoeste 19 Sudoeste 0 -- -- 75
2018-03-29 10:00:00 10 9 Sudoeste 18 Sudoeste 0 -- -- 80
2018-03-29 09:00:00 8.8 10 Sudoeste 14 Sudoeste 0 -- -- 85
2018-03-29 08:00:00 8.3 5 Sudoeste 23 Oeste 0 -- -- 76
2018-03-29 07:00:00 7.4 8 Oeste 11 Oeste 0 -- -- 82
2018-03-29 06:00:00 7.4 0 Calma 7 Sudoeste 0 -- -- 85
2018-03-29 05:00:00 7.4 0 Calma 6 Nordeste 0 -- -- 83
2018-03-29 04:00:00 8 2 Oeste 6 Sudoeste 0 -- -- 80
2018-03-29 03:00:00 9.1 2 Sudoeste 6 Oeste 0 -- -- 76
2018-03-29 02:00:00 10.1 0 Calma 6 Nordeste 0 -- -- 73
2018-03-29 01:00:00 10.1 2 Sudeste 5 Este 0 -- -- 71
2018-03-29 00:00:00 10.4 0 Calma 4 Este 0 -- -- 69
2018-03-28 23:00:00 12 2 Sudeste 6 Este 0 -- -- 59
2018-03-28 22:00:00 14.6 0 Calma 15 Oeste 0 -- -- 46
2018-03-28 21:00:00 16.4 10 Sudoeste 28 Sudoeste 0 -- -- 38
2018-03-28 20:00:00 18.6 18 Oeste 34 Oeste 0 -- -- 35
2018-03-28 19:00:00 20.6 19 Sudoeste 36 Sudoeste 0 -- -- 34
2018-03-28 18:00:00 21.3 21 Sudoeste 39 Sudoeste 0 -- -- 30
2018-03-28 17:00:00 21.4 20 Sudoeste 37 Sudoeste 0 -- -- 31
2018-03-28 16:00:00 21 20 Sudoeste 36 Sudoeste 0 -- -- 39
2018-03-28 15:00:00 20.9 16 Sudoeste 33 Sudoeste 0 -- -- 38
2018-03-28 14:00:00 19.6 18 Sudoeste 32 Sudoeste 0 -- -- 37
2018-03-28 13:00:00 18.7 9 Sudoeste 20 Oeste 0 -- -- 36
2018-03-28 12:00:00 15.9 6 Oeste 12 Oeste 0 -- -- 55
2018-03-28 11:00:00 11.8 3 Oeste 7 Noroeste 0 -- -- 71
2018-03-28 10:00:00 8.3 0 Calma 10 Nordeste 0 -- -- 84
2018-03-28 09:00:00 4.8 4 Este 12 Nordeste 0 -- -- 93
2018-03-28 08:00:00 3.6 6 Este 9 Este 0 -- -- 91
2018-03-28 07:00:00 4.2 6 Este 10 Este 0 -- -- 92
2018-03-28 06:00:00 4.9 4 Nordeste 8 Este 0 -- -- 90
2018-03-28 05:00:00 5.1 6 Este 8 Este 0 -- -- 88
2018-03-28 04:00:00 5.9 4 Nordeste 7 Nordeste 0 -- -- 85
2018-03-28 03:00:00 7.2 2 Este 10 Nordeste 0 -- -- 80
2018-03-28 02:00:00 8.3 4 Nordeste 6 Este 0 -- -- 78
2018-03-28 01:00:00 9.8 3 Sur 14 Oeste 0 -- -- 71
2018-03-28 00:00:00 11.8 5 Norte 12 Sudoeste 0 -- -- 63
2018-03-27 23:00:00 12.6 8 Este 15 Nordeste 0 -- -- 60
2018-03-27 22:00:00 14.3 8 Este 14 Nordeste 0 -- -- 56
2018-03-27 21:00:00 16.2 9 Nordeste 16 Norte 0 -- -- 50
2018-03-27 20:00:00 19.2 9 Nordeste 14 Nordeste 0 -- -- 44
2018-03-27 19:00:00 20.4 6 Norte 14 Noroeste 0 -- -- 36
2018-03-27 18:00:00 21.2 7 Noroeste 19 Oeste 0 -- -- 36
2018-03-27 17:00:00 20.6 11 Sudoeste 23 Sudoeste 0 -- -- 39
2018-03-27 16:00:00 20 11 Sudoeste 20 Oeste 0 -- -- 43
2018-03-27 15:00:00 18.7 9 Oeste 21 Oeste 0 -- -- 45
2018-03-27 14:00:00 17.3 10 Oeste 21 Oeste 0 -- -- 48
2018-03-27 13:00:00 15.8 13 Oeste 19 Noroeste 0 -- -- 51
2018-03-27 12:00:00 14.4 5 Sudoeste 12 Oeste 0 -- -- 57
2018-03-27 11:00:00 11.6 3 Oeste 7 Oeste 0 -- -- 64
2018-03-27 10:00:00 8.1 3 Sur 6 Sudoeste 0 -- -- 72
2018-03-27 09:00:00 4.4 2 Este 7 Nordeste 0 -- -- 89
2018-03-27 08:00:00 3.3 3 Sudoeste 6 Sudoeste 0 -- -- 86
2018-03-27 07:00:00 4.5 3 Este 6 Este 0 -- -- 85
2018-03-27 06:00:00 4.5 3 Este 5 Este 0 -- -- 86
2018-03-27 05:00:00 4.5 4 Este 5 Este 0 -- -- 85
2018-03-27 04:00:00 5.8 0 Calma 6 Este 0 -- -- 77
2018-03-27 03:00:00 5.8 5 Nordeste 9 Nordeste 0 -- -- 75
2018-03-27 02:00:00 4.6 3 Norte 7 Sudeste 0 -- -- 78
2018-03-27 01:00:00 5.9 3 Sudoeste 10 Oeste 0 -- -- 72
2018-03-27 00:00:00 7.2 0 Calma 9 Noroeste 0 -- -- 66
2018-03-26 23:00:00 9.6 2 Norte 13 Nordeste 0 -- -- 56
2018-03-26 22:00:00 11 12 Nordeste 26 Norte 0 -- -- 49
2018-03-26 21:00:00 11.9 16 Norte 28 Norte 0 -- -- 45
2018-03-26 20:00:00 12.5 13 Nordeste 31 Nordeste 0 -- -- 45
2018-03-26 19:00:00 13.4 22 Norte 38 Nordeste 0 -- -- 43
2018-03-26 18:00:00 14.2 19 Norte 32 Norte 0 -- -- 40
2018-03-26 17:00:00 14.2 14 Norte 30 Norte 0 -- -- 40
2018-03-26 16:00:00 14.1 19 Norte 32 Norte 0 -- -- 37
2018-03-26 15:00:00 13.4 17 Nordeste 31 Norte 0 -- -- 43
2018-03-26 14:00:00 13 19 Norte 32 Norte 0 -- -- 46
2018-03-26 13:00:00 11.9 21 Norte 35 Norte 0 -- -- 49
2018-03-26 12:00:00 10.8 19 Norte 34 Norte 0 -- -- 54
2018-03-26 11:00:00 9.6 16 Norte 28 Norte 0 -- -- 58
2018-03-26 10:00:00 7.8 5 Nordeste 19 Nordeste 0 -- -- 66
2018-03-26 09:00:00 5.2 8 Nordeste 15 Este 0 -- -- 74
2018-03-26 08:00:00 3.6 5 Nordeste 10 Este 0 -- -- 81
2018-03-26 07:00:00 3.6 4 Este 9 Noroeste 0 -- -- 80
2018-03-26 06:00:00 5 3 Nordeste 13 Nordeste 0 -- -- 74
2018-03-26 05:00:00 5.9 7 Nordeste 31 Norte 0 -- -- 70
2018-03-26 04:00:00 6.9 13 Norte 32 Norte 0 -- -- 66
2018-03-26 03:00:00 7.2 15 Norte 31 Norte 0 -- -- 66
2018-03-26 02:00:00 7.3 5 Norte 18 Nordeste 0 -- -- 67
2018-03-26 01:00:00 7.6 11 Nordeste 28 Norte 0 -- -- 65
2018-03-26 00:00:00 7.8 14 Norte 26 Norte 0 -- -- 64
2018-03-25 23:00:00 7.5 6 Nordeste 17 Nordeste 0 -- -- 66
2018-03-25 22:00:00 6.9 6 Este 14 Nordeste 0 -- -- 69
2018-03-25 21:00:00 7.7 6 Nordeste 25 Norte 0 -- -- 65
2018-03-25 20:00:00 8.7 17 Norte 38 Norte 0 -- -- 60
2018-03-25 19:00:00 10.9 23 Norte 38 Norte 0 -- -- 50
2018-03-25 18:00:00 11.3 21 Norte 37 Norte 0 -- -- 49
2018-03-25 17:00:00 11.2 19 Nordeste 28 Nordeste 0 -- -- 52
2018-03-25 16:00:00 11.3 21 Norte 32 Norte 0 -- -- 46
2018-03-25 15:00:00 12.3 14 Norte 28 Norte 0 -- -- 44
2018-03-25 14:00:00 11.7 12 Nordeste 25 Norte 0 -- -- 48
2018-03-25 13:00:00 10.7 7 Norte 14 Nordeste 0 -- -- 51
2018-03-25 12:00:00 9.4 4 Noroeste 12 Este 0 -- -- 50
2018-03-25 11:00:00 8.6 6 Sudoeste 14 Oeste 0 -- -- 61
2018-03-25 10:00:00 7 9 Noroeste 16 Noroeste 0 -- -- 66
2018-03-25 09:00:00 4.7 3 Sudoeste 13 Oeste 0 -- -- 73
2018-03-25 08:00:00 4.7 8 Oeste 15 Oeste 0 -- -- 75
2018-03-25 07:00:00 4.7 10 Oeste 15 Oeste 0 -- -- 75
2018-03-25 06:00:00 5.3 3 Sudoeste 19 Noroeste 0 -- -- 71
2018-03-25 05:00:00 6.2 9 Norte 27 Noroeste 0 -- -- 64
2018-03-25 03:00:00 6.7 17 Oeste 30 Oeste 0 -- -- 65
2018-03-25 01:00:00 7.3 17 Noroeste 36 Noroeste 0 -- -- 61
2018-03-25 00:00:00 7.8 26 Noroeste 37 Noroeste 0 -- -- 58
2018-03-24 23:00:00 8.2 18 Oeste 32 Oeste 0 -- -- 57
2018-03-24 22:00:00 8.5 15 Noroeste 44 Oeste 0 -- -- 59
2018-03-24 21:00:00 8.7 9 Oeste 23 Oeste 0 -- -- 64
2018-03-24 20:00:00 9.3 13 Oeste 31 Oeste 0 -- -- 60
2018-03-24 19:00:00 10.3 19 Noroeste 46 Noroeste 0 -- -- 55
2018-03-24 18:00:00 10.9 26 Noroeste 57 Noroeste 0 -- -- 51
2018-03-24 17:00:00 11.4 35 Noroeste 60 Noroeste 0 -- -- 51
2018-03-24 16:00:00 10.3 32 Noroeste 54 Noroeste 0 -- -- 57
2018-03-24 15:00:00 10.5 38 Noroeste 61 Noroeste 0 -- -- 57
2018-03-24 14:00:00 10.3 36 Noroeste 58 Noroeste 0 -- -- 58
2018-03-24 13:00:00 8.2 24 Oeste 51 Oeste 0 -- -- 61
2018-03-24 12:00:00 8.6 31 Oeste 48 Oeste 0 -- -- 60
2018-03-24 11:00:00 7.8 29 Oeste 48 Oeste 0 -- -- 61
2018-03-24 10:00:00 6.5 22 Oeste 40 Oeste 0 -- -- 66
2018-03-24 09:00:00 5.6 18 Oeste 27 Oeste 0 -- -- 67
2018-03-24 08:00:00 3.5 10 Oeste 22 Oeste 0 -- -- 74
2018-03-24 07:00:00 2.7 8 Oeste 14 Noroeste 0 -- -- 77
2018-03-24 06:00:00 3.9 12 Noroeste 35 Norte 0 -- -- 70
2018-03-24 05:00:00 4.5 14 Noroeste 32 Noroeste 0 -- -- 67
2018-03-24 04:00:00 4.5 5 Norte 22 Noroeste 0 -- -- 72
2018-03-24 03:00:00 5.8 7 Norte 17 Norte 0 -- -- 70
2018-03-24 02:00:00 5.9 6 Oeste 58 Oeste 1.2 -- -- 84
2018-03-24 01:00:00 9.3 31 Sudoeste 48 Sudoeste 0.2 -- -- 88
2018-03-24 00:00:00 9.6 27 Oeste 47 Sudoeste 1 -- -- 89
2018-03-23 23:00:00 9.6 21 Sudoeste 41 Sudoeste 1 -- -- 92
2018-03-23 22:00:00 9.8 24 Sudoeste 43 Sudoeste 0 -- -- 91
2018-03-23 21:00:00 9.6 21 Sudoeste 38 Sudoeste 0 -- -- 92
2018-03-23 20:00:00 9.5 17 Sudoeste 31 Sudoeste 0 -- -- 90
2018-03-23 19:00:00 9.7 19 Oeste 36 Sudoeste 0 -- -- 90
2018-03-23 18:00:00 9.9 17 Sudoeste 34 Sudoeste 0.2 -- -- 89
2018-03-23 17:00:00 10.6 16 Sudoeste 30 Sudoeste 0.2 -- -- 85
2018-03-23 16:00:00 11.9 14 Sudoeste 40 Sudoeste 0 -- -- 75
2018-03-23 15:00:00 14.6 19 Oeste 29 Oeste 0 -- -- 62
2018-03-23 14:00:00 11.8 11 Sudoeste 23 Oeste 0 -- -- 67
2018-03-23 13:00:00 10.2 12 Sudoeste 19 Oeste 0 -- -- 64
2018-03-23 12:00:00 9.8 13 Oeste 21 Sudoeste 0 -- -- 58
2018-03-23 11:00:00 9.4 10 Oeste 15 Oeste 0 -- -- 57
2018-03-23 10:00:00 8 2 Oeste 13 Oeste 0 -- -- 61
2018-03-23 09:00:00 5 2 Noroeste 5 Noroeste 0 -- -- 71
2018-03-23 08:00:00 3 3 Este 7 Este 0 -- -- 80
2018-03-23 07:00:00 2.5 5 Este 8 Este 0 -- -- 81
2018-03-23 06:00:00 1.7 4 Este 6 Este 0 -- -- 82
2018-03-23 05:00:00 1.2 3 Este 6 Este 0 -- -- 82
2018-03-23 04:00:00 0.9 4 Nordeste 7 Nordeste 0 -- -- 83
2018-03-23 03:00:00 1.6 3 Este 5 Sudeste 0 -- -- 78
2018-03-23 02:00:00 1.5 0 Calma 10 Sudoeste 0 -- -- 73
2018-03-23 01:00:00 2.9 6 Noroeste 10 Noroeste 0 -- -- 69
2018-03-23 00:00:00 4.9 2 Sudeste 9 Este 0 -- -- 60